createdAt,value
2018-05-03T00:00:42.508Z,76.89
2018-05-03T00:03:08.248Z,77.37
2018-05-03T00:05:33.976Z,77.71
2018-05-03T00:07:59.692Z,76.65
2018-05-03T00:10:25.429Z,77.21
2018-05-03T00:12:51.164Z,78.15
2018-05-03T00:15:16.904Z,78.00
2018-05-03T00:17:42.628Z,77.50
2018-05-03T00:20:08.357Z,77.54
2018-05-03T00:22:34.076Z,76.91
2018-05-03T00:24:59.799Z,77.01
2018-05-03T00:27:25.520Z,77.84
2018-05-03T00:29:51.252Z,76.81
2018-05-03T00:32:16.969Z,77.43
2018-05-03T00:34:42.697Z,76.85
2018-05-03T00:37:08.411Z,77.37
2018-05-03T00:39:34.132Z,77.34
2018-05-03T00:41:59.848Z,77.97
2018-05-03T00:44:25.581Z,77.95
2018-05-03T00:46:51.313Z,77.52
2018-05-03T00:49:17.044Z,77.51
2018-05-03T00:51:42.784Z,77.88
2018-05-03T00:54:20.817Z,77.62
2018-05-03T00:56:46.544Z,77.33
2018-05-03T00:59:12.287Z,77.73
2018-05-03T01:01:38.001Z,78.51
2018-05-03T01:04:03.733Z,77.71
2018-05-03T01:06:29.465Z,78.33
2018-05-03T01:08:55.240Z,78.53
2018-05-03T01:11:20.976Z,77.96
2018-05-03T01:13:46.713Z,77.87
2018-05-03T01:16:12.459Z,78.88
2018-05-03T01:18:38.184Z,78.51
2018-05-03T01:21:03.912Z,78.92
2018-05-03T01:23:29.633Z,78.98
2018-05-03T01:25:55.368Z,79.11
2018-05-03T01:28:21.090Z,78.91
2018-05-03T01:30:46.824Z,79.68
2018-05-03T01:33:12.556Z,78.96
2018-05-03T01:35:50.853Z,79.52
2018-05-03T01:38:16.580Z,80.00
2018-05-03T01:40:42.317Z,80.70
2018-05-03T01:43:08.040Z,80.61
2018-05-03T01:45:33.772Z,80.23
2018-05-03T01:47:59.488Z,80.04
2018-05-03T01:50:25.223Z,79.09
2018-05-03T01:52:50.955Z,79.18
2018-05-03T01:55:16.764Z,79.42
2018-05-03T01:57:42.492Z,79.73
2018-05-03T02:00:08.228Z,81.27
2018-05-03T02:02:33.960Z,80.39
2018-05-03T02:04:59.707Z,81.32
2018-05-03T02:07:25.439Z,82.30
2018-05-03T02:09:51.168Z,81.44
2018-05-03T02:12:16.891Z,81.21
2018-05-03T02:14:42.612Z,81.19
2018-05-03T02:17:08.347Z,80.82
2018-05-03T02:19:34.085Z,81.19
2018-05-03T02:21:59.803Z,83.61
2018-05-03T02:24:25.527Z,84.13
2018-05-03T02:26:51.256Z,83.28
2018-05-03T02:29:16.993Z,82.94
2018-05-03T02:31:42.729Z,82.46
2018-05-03T02:34:08.461Z,81.41
2018-05-03T02:36:34.200Z,81.51
2018-05-03T02:38:59.924Z,81.35
2018-05-03T02:41:25.656Z,80.94
2018-05-03T02:43:51.371Z,80.68
2018-05-03T02:46:17.108Z,79.63
2018-05-03T02:48:42.836Z,80.21
2018-05-03T02:51:08.568Z,81.13
2018-05-03T02:53:34.307Z,81.05
2018-05-03T02:56:00.043Z,82.07
2018-05-03T02:58:38.272Z,81.14
2018-05-03T03:01:22.813Z,81.13
2018-05-03T03:04:07.293Z,81.57
2018-05-03T03:06:51.620Z,82.10
2018-05-03T03:09:36.019Z,82.12
2018-05-03T03:26:01.423Z,83.23
2018-05-03T03:28:45.929Z,83.61
2018-05-03T03:31:30.355Z,82.75
2018-05-03T03:34:15.972Z,82.45
2018-05-03T03:40:08.272Z,84.06
2018-05-03T03:56:14.069Z,84.61
2018-05-03T03:58:39.808Z,83.48
2018-05-03T04:01:05.532Z,83.13
2018-05-03T04:03:31.267Z,82.99
2018-05-03T04:05:57.008Z,83.59
2018-05-03T04:08:22.749Z,83.42
2018-05-03T04:10:48.476Z,83.46
2018-05-03T04:13:14.196Z,82.86
2018-05-03T04:15:39.925Z,82.70
2018-05-03T04:18:17.900Z,83.00
2018-05-03T04:21:07.559Z,81.74
2018-05-03T04:23:45.887Z,81.70
2018-05-03T04:26:11.628Z,83.23
2018-05-03T04:28:37.369Z,82.95
2018-05-03T04:31:03.095Z,82.12
2018-05-03T04:33:28.832Z,81.16
2018-05-03T04:35:54.551Z,82.33
2018-05-03T04:38:20.324Z,80.49
2018-05-03T04:40:46.065Z,80.79
2018-05-03T04:43:11.803Z,82.07
2018-05-03T04:45:37.536Z,81.95
2018-05-03T04:48:03.268Z,81.32
2018-05-03T04:50:29.016Z,82.30
2018-05-03T04:52:54.768Z,82.03
2018-05-03T04:55:20.529Z,80.70
2018-05-03T04:57:46.368Z,80.56
2018-05-03T05:00:12.201Z,81.43
2018-05-03T05:02:37.937Z,81.46
2018-05-03T05:05:03.679Z,81.95
2018-05-03T05:07:29.415Z,82.11
2018-05-03T05:09:55.153Z,82.46
2018-05-03T05:12:20.888Z,83.13
2018-05-03T05:14:46.619Z,82.80
2018-05-03T05:17:12.341Z,83.45
2018-05-03T05:19:38.075Z,83.80
2018-05-03T05:22:03.808Z,85.04
2018-05-03T05:24:29.622Z,85.29
2018-05-03T05:26:55.465Z,85.41
2018-05-03T05:29:21.198Z,86.51
2018-05-03T05:31:46.936Z,87.28
2018-05-03T05:34:12.657Z,87.51
2018-05-03T05:36:38.393Z,87.28
2018-05-03T05:39:04.198Z,86.65
2018-05-03T05:41:29.899Z,84.80
2018-05-03T05:43:55.645Z,84.59
2018-05-03T05:46:21.419Z,83.30
2018-05-03T05:48:47.161Z,80.87
2018-05-03T05:51:13.098Z,80.93
2018-05-03T05:53:38.836Z,81.16
2018-05-03T05:56:04.559Z,81.46
2018-05-03T05:58:30.293Z,81.51
2018-05-03T06:00:56.028Z,81.47
2018-05-03T06:03:21.765Z,81.06
2018-05-03T06:05:47.512Z,81.21
2018-05-03T06:08:13.250Z,81.11
2018-05-03T06:10:38.995Z,81.47
2018-05-03T06:13:04.733Z,81.59
2018-05-03T06:15:30.467Z,81.51
2018-05-03T06:17:56.198Z,81.41
2018-05-03T06:20:21.928Z,81.19
2018-05-03T06:22:47.670Z,81.43
2018-05-03T06:25:13.404Z,81.68
2018-05-03T06:27:39.146Z,80.75
2018-05-03T06:30:04.891Z,81.33
2018-05-03T06:32:30.632Z,81.27
2018-05-03T06:34:56.363Z,81.33
2018-05-03T06:37:22.117Z,80.39
2018-05-03T06:39:47.864Z,80.30
2018-05-03T06:42:13.600Z,78.94
2018-05-03T06:44:39.327Z,79.40
2018-05-03T06:47:05.072Z,78.94
2018-05-03T06:49:30.796Z,79.15
2018-05-03T06:51:56.546Z,78.49
2018-05-03T06:54:22.276Z,77.31
2018-05-03T06:56:48.020Z,76.96
2018-05-03T06:59:13.752Z,76.39
2018-05-03T07:01:39.480Z,75.72
2018-05-03T07:04:05.300Z,74.89
2018-05-03T07:06:30.955Z,74.56
2018-05-03T07:08:56.676Z,72.56
2018-05-03T07:11:22.397Z,72.99
2018-05-03T07:13:48.119Z,72.53
2018-05-03T07:16:13.842Z,71.46
2018-05-03T07:18:39.575Z,71.72
2018-05-03T07:21:05.304Z,72.64
2018-05-03T07:23:31.045Z,72.80
2018-05-03T07:25:56.793Z,71.87
2018-05-03T07:28:22.529Z,72.30
2018-05-03T07:30:48.260Z,73.33
2018-05-03T07:33:14.001Z,73.90
2018-05-03T07:35:39.728Z,74.96
2018-05-03T07:38:05.457Z,73.97
2018-05-03T07:40:31.170Z,73.83
2018-05-03T07:42:56.894Z,73.64
2018-05-03T07:45:22.603Z,73.88
2018-05-03T07:47:48.333Z,72.87
2018-05-03T07:50:14.065Z,73.19
2018-05-03T07:52:39.800Z,73.09
2018-05-03T07:55:05.518Z,73.72
2018-05-03T07:57:31.264Z,73.38
2018-05-03T07:59:56.996Z,72.91
2018-05-03T08:02:22.740Z,73.63
2018-05-03T08:04:48.455Z,72.42
2018-05-03T08:07:14.183Z,70.75
2018-05-03T08:09:39.912Z,71.96
2018-05-03T08:12:05.635Z,70.79
2018-05-03T08:14:31.375Z,69.96
2018-05-03T08:16:57.156Z,70.68
2018-05-03T08:19:22.864Z,70.30
2018-05-03T08:21:48.588Z,68.84
2018-05-03T08:24:14.324Z,69.19
2018-05-03T08:26:40.052Z,69.13
2018-05-03T08:29:05.785Z,67.82
2018-05-03T08:31:31.527Z,68.54
2018-05-03T08:33:57.261Z,67.15
2018-05-03T08:36:22.980Z,64.95
2018-05-03T08:38:48.716Z,64.93
2018-05-03T08:41:14.445Z,65.84
2018-05-03T08:43:40.196Z,66.05
2018-05-03T08:46:05.933Z,65.95
2018-05-03T08:48:31.677Z,65.49
2018-05-03T08:50:57.415Z,64.05
2018-05-03T08:53:23.170Z,63.48
2018-05-03T08:55:48.940Z,61.76
2018-05-03T08:58:14.676Z,64.12
2018-05-03T09:00:40.405Z,62.89
2018-05-03T09:03:06.150Z,62.81
2018-05-03T09:05:31.868Z,61.96
2018-05-03T09:07:57.601Z,61.70
2018-05-03T09:10:23.324Z,62.04
2018-05-03T09:12:49.045Z,61.02
2018-05-03T09:15:14.781Z,60.17
2018-05-03T09:17:40.508Z,59.48
2018-05-03T09:20:06.252Z,60.56
2018-05-03T09:22:32.029Z,58.99
2018-05-03T09:24:57.711Z,57.04
2018-05-03T09:27:23.432Z,56.67
2018-05-03T09:29:49.156Z,55.78
2018-05-03T09:32:14.885Z,54.31
2018-05-03T09:34:40.611Z,57.14
2018-05-03T09:37:06.320Z,56.13
2018-05-03T09:39:32.052Z,53.86
2018-05-03T09:41:57.763Z,54.69
2018-05-03T09:44:23.551Z,54.78
2018-05-03T09:46:49.217Z,53.73
2018-05-03T09:49:14.960Z,56.25
2018-05-03T09:51:40.684Z,54.43
2018-05-03T09:54:06.416Z,52.59
2018-05-03T09:56:32.132Z,52.40
2018-05-03T09:58:57.874Z,52.22
2018-05-03T10:01:23.587Z,53.18
2018-05-03T10:03:49.328Z,52.80
2018-05-03T10:06:15.060Z,52.19
2018-05-03T10:08:40.799Z,53.04
2018-05-03T10:11:06.523Z,51.41
2018-05-03T10:13:32.245Z,52.55
2018-05-03T10:15:57.961Z,50.56
2018-05-03T10:18:23.718Z,49.86
2018-05-03T10:20:49.415Z,52.01
2018-05-03T10:23:15.144Z,51.96
2018-05-03T10:25:40.881Z,51.28
2018-05-03T10:28:06.598Z,50.38
2018-05-03T10:30:32.332Z,48.48
2018-05-03T10:32:58.048Z,48.54
2018-05-03T10:35:23.772Z,49.20
2018-05-03T10:37:49.503Z,49.11
2018-05-03T10:40:15.224Z,50.01
2018-05-03T10:42:40.952Z,50.44
2018-05-03T10:45:06.681Z,50.18
2018-05-03T10:47:32.423Z,51.11
2018-05-03T10:49:58.165Z,52.04
2018-05-03T10:52:23.884Z,53.72
2018-05-03T10:54:49.616Z,51.54
2018-05-03T10:57:15.341Z,51.88
2018-05-03T10:59:41.071Z,52.84
2018-05-03T11:02:06.779Z,51.22
2018-05-03T11:04:32.492Z,53.40
2018-05-03T11:06:58.239Z,52.35
2018-05-03T11:09:23.968Z,53.38
2018-05-03T11:11:49.691Z,52.03
2018-05-03T11:14:15.425Z,51.88
2018-05-03T11:16:41.210Z,51.92
2018-05-03T11:19:06.874Z,50.42
2018-05-03T11:21:32.583Z,49.50
2018-05-03T11:23:58.325Z,50.67
2018-05-03T11:26:24.048Z,50.64
2018-05-03T11:28:49.772Z,51.92
2018-05-03T11:31:15.500Z,51.62
2018-05-03T11:33:41.220Z,52.93
2018-05-03T11:36:06.948Z,50.49
2018-05-03T11:38:32.659Z,49.81
2018-05-03T11:40:58.376Z,49.45
2018-05-03T11:43:24.096Z,49.81
2018-05-03T11:45:49.829Z,50.23
2018-05-03T11:48:15.539Z,51.00
2018-05-03T11:50:41.271Z,50.39
2018-05-03T11:53:06.993Z,49.49
2018-05-03T11:55:32.728Z,50.26
2018-05-03T11:57:58.464Z,50.50
2018-05-03T12:00:31.226Z,47.18
2018-05-03T12:02:56.969Z,45.10
2018-05-03T12:05:22.699Z,45.14
2018-05-03T12:07:48.419Z,44.42
2018-05-03T12:10:14.160Z,44.78
2018-05-03T12:12:39.871Z,42.91
2018-05-03T12:15:05.600Z,44.35
2018-05-03T12:17:31.323Z,42.03
2018-05-03T12:19:57.059Z,41.75
2018-05-03T12:22:22.789Z,42.53
2018-05-03T12:24:48.519Z,45.44
2018-05-03T12:27:14.236Z,46.01
2018-05-03T12:29:39.971Z,46.37
2018-05-03T12:32:05.705Z,47.86
2018-05-03T12:34:31.444Z,49.34
2018-05-03T12:36:57.175Z,50.48
2018-05-03T12:39:22.896Z,51.50
2018-05-03T12:41:48.632Z,51.91
2018-05-03T12:44:14.352Z,51.29
2018-05-03T12:46:40.085Z,50.09
2018-05-03T12:49:05.806Z,48.42
2018-05-03T12:51:31.552Z,46.50
2018-05-03T12:53:57.272Z,46.72
2018-05-03T12:56:23.005Z,48.76
2018-05-03T12:58:48.728Z,49.29
2018-05-03T13:01:14.454Z,50.33
2018-05-03T13:03:40.180Z,48.36
2018-05-03T13:06:05.908Z,49.25
2018-05-03T13:08:31.628Z,45.52
2018-05-03T13:10:57.368Z,43.57
2018-05-03T13:13:23.081Z,45.26
2018-05-03T13:15:48.823Z,45.99
2018-05-03T13:18:14.548Z,45.22
2018-05-03T13:20:40.279Z,44.97
2018-05-03T13:23:05.995Z,44.61
2018-05-03T13:25:31.723Z,45.54
2018-05-03T13:27:57.450Z,47.97
2018-05-03T13:30:23.200Z,48.52
2018-05-03T13:32:48.903Z,50.43
2018-05-03T13:35:14.631Z,48.76
2018-05-03T13:37:40.361Z,46.25
2018-05-03T13:40:06.107Z,44.92
2018-05-03T13:42:31.826Z,43.50
2018-05-03T13:44:57.548Z,43.36
2018-05-03T13:47:23.451Z,42.96
2018-05-03T13:49:49.004Z,41.80
2018-05-03T13:52:14.732Z,40.73
2018-05-03T13:54:40.454Z,41.34
2018-05-03T13:57:06.199Z,44.91
2018-05-03T13:59:31.924Z,42.98
2018-05-03T14:01:57.663Z,44.86
2018-05-03T14:04:23.374Z,44.36
2018-05-03T14:06:50.660Z,44.56
2018-05-03T14:09:20.319Z,44.35
2018-05-03T14:11:48.784Z,45.59
2018-05-03T14:14:14.984Z,43.75
2018-05-03T14:16:41.158Z,42.98
2018-05-03T14:19:08.076Z,44.14
2018-05-03T14:21:34.223Z,45.30
2018-05-03T14:24:00.367Z,47.42
2018-05-03T14:26:26.145Z,50.39
2018-05-03T14:28:51.864Z,52.01
2018-05-03T14:31:17.606Z,53.56
2018-05-03T14:33:43.326Z,54.90
2018-05-03T14:36:09.060Z,49.01
2018-05-03T14:38:34.775Z,49.03
2018-05-03T14:41:00.511Z,48.54
2018-05-03T14:43:26.239Z,47.79
2018-05-03T14:45:51.971Z,45.75
2018-05-03T14:48:17.692Z,46.40
2018-05-03T14:50:43.424Z,50.33
2018-05-03T14:53:09.151Z,49.28
2018-05-03T14:55:34.880Z,49.77
2018-05-03T14:58:00.620Z,50.68
2018-05-03T15:00:26.341Z,50.98
2018-05-03T15:02:52.071Z,49.85
2018-05-03T15:05:17.795Z,49.05
2018-05-03T15:07:43.529Z,49.42
2018-05-03T15:10:09.261Z,49.64
2018-05-03T15:12:35.052Z,49.05
2018-05-03T15:15:02.214Z,49.44
2018-05-03T15:17:29.385Z,51.49
2018-05-03T15:19:55.339Z,50.08
2018-05-03T15:22:21.076Z,48.42
2018-05-03T15:24:46.797Z,47.56
2018-05-03T15:27:12.525Z,47.78
2018-05-03T15:29:38.255Z,50.00
2018-05-03T15:32:03.985Z,47.97
2018-05-03T15:34:29.714Z,48.35
2018-05-03T15:36:56.559Z,49.26
2018-05-03T15:39:23.380Z,50.56
2018-05-03T15:41:49.128Z,50.46
2018-05-03T15:44:14.852Z,50.29
2018-05-03T15:46:40.582Z,51.25
2018-05-03T15:49:06.312Z,49.89
2018-05-03T15:51:32.047Z,50.79
2018-05-03T15:53:58.956Z,49.55
2018-05-03T15:56:25.891Z,48.99
2018-05-03T15:58:52.369Z,50.11
2018-05-03T16:01:18.112Z,49.96
2018-05-03T16:03:43.834Z,50.88
2018-05-03T16:06:09.548Z,52.46
2018-05-03T16:08:35.451Z,52.89
2018-05-03T16:11:01.181Z,53.89
2018-05-03T16:13:27.143Z,54.32
2018-05-03T16:15:52.965Z,54.31
2018-05-03T16:18:18.702Z,54.24
2018-05-03T16:20:44.476Z,54.39
2018-05-03T16:23:10.428Z,55.37
2018-05-03T16:25:36.199Z,54.85
2018-05-03T16:28:01.936Z,55.03
2018-05-03T16:30:27.760Z,55.13
2018-05-03T16:32:53.636Z,55.21
2018-05-03T16:35:19.352Z,55.63
2018-05-03T16:37:45.128Z,55.42
2018-05-03T16:40:10.869Z,55.17
2018-05-03T16:42:36.623Z,54.64
2018-05-03T16:45:02.361Z,54.12
2018-05-03T16:47:28.079Z,53.52
2018-05-03T16:49:53.799Z,53.84
2018-05-03T16:52:19.632Z,55.78
2018-05-03T16:54:45.288Z,55.98
2018-05-03T16:57:11.018Z,55.87
2018-05-03T16:59:36.747Z,56.08
2018-05-03T17:02:02.475Z,56.21
2018-05-03T17:04:28.210Z,56.74
2018-05-03T17:06:53.948Z,56.23
2018-05-03T17:09:19.681Z,56.72
2018-05-03T17:11:45.411Z,56.43
2018-05-03T17:14:11.176Z,57.34
2018-05-03T17:16:36.880Z,57.20
2018-05-03T17:19:02.629Z,56.97
2018-05-03T17:21:28.364Z,55.48
2018-05-03T17:23:54.101Z,56.07
2018-05-03T17:26:19.821Z,56.65
2018-05-03T17:28:45.574Z,56.66
2018-05-03T17:31:13.780Z,56.33
2018-05-03T17:33:39.692Z,56.34
2018-05-03T17:36:06.726Z,57.06
2018-05-03T17:38:32.717Z,57.72
2018-05-03T17:40:58.643Z,57.46
2018-05-03T17:43:24.647Z,58.06
2018-05-03T17:45:50.446Z,58.58
2018-05-03T17:48:16.191Z,58.81
2018-05-03T17:50:41.918Z,59.81
2018-05-03T17:53:07.647Z,59.15
2018-05-03T17:55:33.620Z,58.45
2018-05-03T17:57:59.454Z,59.41
2018-05-03T18:00:25.315Z,58.29
2018-05-03T18:02:51.136Z,58.54
2018-05-03T18:05:16.996Z,58.79
2018-05-03T18:07:42.956Z,58.57
2018-05-03T18:10:08.753Z,58.88
2018-05-03T18:12:34.608Z,59.42
2018-05-03T18:15:00.420Z,59.18
2018-05-03T18:17:26.184Z,58.81
2018-05-03T18:19:51.908Z,59.39
2018-05-03T18:22:17.641Z,58.95
2018-05-03T18:24:44.869Z,59.17
2018-05-03T18:27:11.715Z,58.28
2018-05-03T18:29:37.832Z,59.33
2018-05-03T18:32:03.703Z,58.55
2018-05-03T18:34:29.760Z,58.36
2018-05-03T18:36:55.492Z,58.77
2018-05-03T18:39:21.240Z,58.87
2018-05-03T18:41:47.000Z,59.73
2018-05-03T18:44:13.104Z,60.08
2018-05-03T18:46:39.048Z,60.55
2018-05-03T18:49:04.792Z,60.38
2018-05-03T18:51:30.607Z,60.40
2018-05-03T18:53:56.361Z,61.39
2018-05-03T18:56:22.101Z,61.71
2018-05-03T18:58:47.854Z,62.30
2018-05-03T19:01:13.845Z,62.74
2018-05-03T19:03:39.597Z,63.40
2018-05-03T19:06:05.337Z,64.50
2018-05-03T19:08:32.479Z,64.29
2018-05-03T19:10:59.606Z,65.29
2018-05-03T19:13:25.757Z,65.72
2018-05-03T19:15:51.912Z,65.98
2018-05-03T19:18:17.953Z,66.26
2018-05-03T19:20:44.057Z,66.81
2018-05-03T19:23:09.973Z,67.41
2018-05-03T19:25:35.920Z,67.57
2018-05-03T19:28:02.156Z,67.62
2018-05-03T19:30:28.337Z,68.19
2018-05-03T19:32:54.099Z,68.52
2018-05-03T19:35:19.835Z,69.24
2018-05-03T19:37:45.882Z,69.26
2018-05-03T19:40:11.624Z,69.80
2018-05-03T19:42:37.695Z,70.18
2018-05-03T19:45:03.444Z,70.94
2018-05-03T19:47:29.165Z,71.06
2018-05-03T19:49:54.897Z,71.46
2018-05-03T19:52:20.728Z,72.03
2018-05-03T19:54:46.498Z,72.18
2018-05-03T19:57:12.601Z,72.31
2018-05-03T19:59:38.617Z,72.70
2018-05-03T20:02:04.468Z,73.21
2018-05-03T20:04:30.747Z,73.25
2018-05-03T20:06:56.515Z,72.81
2018-05-03T20:09:22.503Z,73.73
2018-05-03T20:11:48.484Z,73.81
2018-05-03T20:14:14.674Z,74.52
2018-05-03T20:16:40.427Z,73.81
2018-05-03T20:19:06.481Z,74.10
2018-05-03T20:21:32.309Z,74.92
2018-05-03T20:23:58.472Z,75.26
2018-05-03T20:26:24.609Z,75.58
2018-05-03T20:28:50.387Z,75.51
2018-05-03T20:31:16.121Z,76.87
2018-05-03T20:33:41.881Z,76.71
2018-05-03T20:36:07.605Z,77.66
2018-05-03T20:38:33.329Z,77.56
2018-05-03T20:40:59.057Z,78.23
2018-05-03T20:43:24.781Z,77.19
2018-05-03T20:45:50.568Z,77.25
2018-05-03T20:48:16.255Z,76.65
2018-05-03T20:50:42.052Z,76.49
2018-05-03T20:53:07.775Z,77.23
2018-05-03T20:55:33.508Z,77.75
2018-05-03T20:57:59.376Z,78.07
2018-05-03T21:00:25.115Z,78.04
2018-05-03T21:02:50.847Z,78.17
2018-05-03T21:05:16.598Z,78.31
2018-05-03T21:07:42.345Z,78.40
2018-05-03T21:10:08.090Z,79.32
2018-05-03T21:12:33.857Z,80.06
2018-05-03T21:14:59.541Z,79.17
2018-05-03T21:17:25.272Z,79.75
2018-05-03T21:19:51.021Z,79.39
2018-05-03T21:22:16.753Z,79.73
2018-05-03T21:24:42.501Z,80.02
2018-05-03T21:27:08.226Z,80.37
2018-05-03T21:29:34.012Z,81.01
2018-05-03T21:31:59.753Z,80.92
2018-05-03T21:34:25.496Z,80.51
2018-05-03T21:36:51.223Z,80.60
2018-05-03T21:39:16.968Z,81.08
2018-05-03T21:41:42.686Z,81.24
2018-05-03T21:44:08.434Z,81.94
2018-05-03T21:46:34.160Z,81.40
2018-05-03T21:48:59.904Z,81.79
2018-05-03T21:51:25.644Z,82.19
2018-05-03T21:53:51.567Z,82.57
2018-05-03T21:56:17.292Z,82.42
2018-05-03T21:58:43.025Z,82.95
2018-05-03T22:01:08.769Z,83.44
2018-05-03T22:03:35.220Z,82.35
2018-05-03T22:06:00.981Z,82.70
2018-05-03T22:08:26.697Z,83.34
2018-05-03T22:10:52.432Z,83.21
2018-05-03T22:13:18.151Z,83.04
2018-05-03T22:15:44.004Z,85.09
2018-05-03T22:18:09.731Z,84.12
2018-05-03T22:20:35.467Z,82.95
2018-05-03T22:23:01.190Z,83.83
2018-05-03T22:25:26.908Z,83.95
2018-05-03T22:27:52.637Z,83.41
2018-05-03T22:30:18.388Z,84.11
2018-05-03T22:32:44.100Z,84.41
2018-05-03T22:35:09.832Z,84.77
2018-05-03T22:37:35.560Z,84.83
2018-05-03T22:40:01.300Z,85.87
2018-05-03T22:42:27.031Z,84.10
2018-05-03T22:44:52.775Z,84.50
2018-05-03T22:47:18.509Z,84.88
2018-05-03T22:49:44.253Z,85.14
2018-05-03T22:52:10.001Z,85.03
2018-05-03T22:54:35.796Z,85.25
2018-05-03T22:57:01.606Z,87.54
2018-05-03T22:59:27.357Z,89.96
2018-05-03T23:01:53.103Z,90.57
2018-05-03T23:04:18.836Z,88.55
2018-05-03T23:06:44.590Z,85.72
2018-05-03T23:09:10.305Z,85.89
2018-05-03T23:11:36.048Z,86.60
2018-05-03T23:14:01.783Z,86.39
2018-05-03T23:16:27.525Z,85.09
2018-05-03T23:18:53.261Z,85.01
2018-05-03T23:21:19.065Z,85.80
2018-05-03T23:23:44.801Z,87.78
2018-05-03T23:26:10.545Z,91.16
2018-05-03T23:28:36.280Z,91.87
2018-05-03T23:31:02.015Z,91.65
2018-05-03T23:33:27.776Z,91.02
2018-05-03T23:35:53.519Z,86.98
2018-05-03T23:38:19.271Z,87.85
2018-05-03T23:40:45.016Z,88.89
2018-05-03T23:43:11.797Z,86.56
2018-05-03T23:45:37.563Z,87.14
2018-05-03T23:48:03.312Z,86.15
2018-05-03T23:50:29.052Z,87.01
2018-05-03T23:52:54.791Z,86.92
2018-05-03T23:55:20.539Z,87.04
2018-05-03T23:57:46.260Z,87.59
